createdAt,value
2023-02-12T00:00:40.060Z,78.30
2023-02-12T00:03:06.755Z,92.00
2023-02-12T00:05:33.271Z,81.85
2023-02-12T00:08:00.011Z,67.30
2023-02-12T00:10:26.515Z,67.65
2023-02-12T00:12:56.099Z,83.38
2023-02-12T00:15:22.608Z,73.00
2023-02-12T00:17:49.120Z,71.70
2023-02-12T00:20:15.733Z,80.60
2023-02-12T00:22:42.226Z,88.13
2023-02-12T00:25:08.752Z,82.13
2023-02-12T00:27:35.556Z,86.43
2023-02-12T00:30:02.257Z,76.07
2023-02-12T00:32:28.715Z,77.05
2023-02-12T00:34:55.201Z,78.75
2023-02-12T00:37:21.649Z,86.68
2023-02-12T00:39:48.104Z,78.90
2023-02-12T00:42:14.537Z,68.03
2023-02-12T00:44:40.998Z,79.90
2023-02-12T00:47:07.497Z,75.20
2023-02-12T00:49:36.937Z,75.60
2023-02-12T00:52:04.331Z,79.00
2023-02-12T00:54:31.462Z,75.10
2023-02-12T00:56:58.155Z,78.95
2023-02-12T00:59:29.100Z,80.82
2023-02-12T01:01:56.605Z,74.75
2023-02-12T01:04:23.793Z,87.90
2023-02-12T01:06:50.371Z,80.53
2023-02-12T01:09:16.847Z,82.23
2023-02-12T01:11:43.582Z,95.07
2023-02-12T01:14:10.118Z,89.72
2023-02-12T01:16:36.966Z,80.25
2023-02-12T01:19:04.411Z,84.45
2023-02-12T01:21:32.066Z,77.47
2023-02-12T01:23:58.842Z,92.00
2023-02-12T01:26:25.968Z,74.88
2023-02-12T01:28:54.429Z,77.60
2023-02-12T01:31:22.341Z,85.75
2023-02-12T01:33:50.971Z,98.20
2023-02-12T01:36:17.388Z,77.93
2023-02-12T01:38:44.000Z,103.05
2023-02-12T01:41:12.926Z,78.57
2023-02-12T01:43:39.749Z,82.82
2023-02-12T01:46:06.595Z,83.25
2023-02-12T01:48:36.183Z,80.07
2023-02-12T01:51:03.960Z,82.07
2023-02-12T01:53:34.946Z,83.20
2023-02-12T01:56:02.102Z,98.75
2023-02-12T01:58:31.561Z,80.47
2023-02-12T02:00:59.337Z,72.70
2023-02-12T02:03:25.853Z,74.40
2023-02-12T02:06:06.331Z,70.67
2023-02-12T02:08:33.842Z,89.47
2023-02-12T02:11:01.130Z,85.77
2023-02-12T02:13:46.378Z,78.70
2023-02-12T02:16:20.890Z,81.00
2023-02-12T02:18:56.023Z,89.07
2023-02-12T02:21:32.874Z,79.32
2023-02-12T02:24:21.158Z,75.43
2023-02-12T02:26:58.238Z,90.17
2023-02-12T02:29:43.438Z,79.83
2023-02-12T02:32:17.140Z,100.90
2023-02-12T02:34:49.734Z,99.43
2023-02-12T02:37:28.505Z,92.17
2023-02-12T02:40:00.381Z,82.05
2023-02-12T02:42:35.178Z,77.13
2023-02-12T02:45:08.183Z,88.93
2023-02-12T02:47:49.761Z,91.00
2023-02-12T02:50:17.862Z,105.00
2023-02-12T02:52:53.913Z,102.93
2023-02-12T02:55:21.596Z,109.97
2023-02-12T02:58:07.501Z,89.53
2023-02-12T03:00:37.399Z,94.43
2023-02-12T03:03:30.352Z,87.47
2023-02-12T03:06:01.314Z,98.70
2023-02-12T03:08:34.309Z,98.33
2023-02-12T03:11:07.933Z,91.53
2023-02-12T03:13:37.764Z,119.37
2023-02-12T03:16:07.861Z,107.17
2023-02-12T03:18:36.831Z,111.00
2023-02-12T03:21:06.490Z,120.87
2023-02-12T03:23:37.630Z,108.90
2023-02-12T03:26:06.057Z,116.43
2023-02-12T03:28:34.456Z,86.72
2023-02-12T03:31:19.992Z,92.73
2023-02-12T03:34:05.337Z,97.57
2023-02-12T03:36:37.975Z,103.70
2023-02-12T03:39:17.500Z,118.37
2023-02-12T03:41:59.526Z,114.37
2023-02-12T03:44:38.801Z,107.90
2023-02-12T03:47:10.511Z,99.40
2023-02-12T03:49:42.855Z,94.87
2023-02-12T03:52:09.443Z,83.90
2023-02-12T03:54:37.066Z,111.73
2023-02-12T03:57:06.314Z,90.53
2023-02-12T03:59:35.483Z,96.90
2023-02-12T04:02:01.937Z,77.22
2023-02-12T04:04:29.239Z,89.32
2023-02-12T04:06:56.064Z,82.18
2023-02-12T04:09:24.145Z,78.53
2023-02-12T04:11:50.563Z,88.43
2023-02-12T04:14:20.045Z,116.38
2023-02-12T04:17:05.371Z,82.00
2023-02-12T04:19:41.507Z,94.35
2023-02-12T04:22:31.278Z,82.70
2023-02-12T04:25:12.089Z,96.45
2023-02-12T04:27:46.804Z,99.13
2023-02-12T04:30:22.513Z,126.27
2023-02-12T04:32:51.854Z,119.73
2023-02-12T04:35:24.637Z,120.53
2023-02-12T04:37:55.175Z,104.53
2023-02-12T04:40:21.938Z,101.97
2023-02-12T04:42:49.558Z,96.07
2023-02-12T04:45:20.429Z,103.80
2023-02-12T04:47:47.041Z,109.27
2023-02-12T04:50:13.732Z,120.70
2023-02-12T04:52:40.238Z,102.23
2023-02-12T04:55:06.812Z,116.53
2023-02-12T04:57:33.293Z,119.00
2023-02-12T04:59:59.853Z,109.40
2023-02-12T05:02:26.653Z,87.45
2023-02-12T05:04:53.150Z,82.50
2023-02-12T05:07:19.594Z,104.43
2023-02-12T05:09:46.058Z,86.50
2023-02-12T05:12:12.616Z,79.73
2023-02-12T05:14:39.098Z,89.15
2023-02-12T05:17:05.612Z,88.22
2023-02-12T05:19:32.172Z,87.82
2023-02-12T05:21:58.726Z,88.72
2023-02-12T05:24:25.958Z,99.68
2023-02-12T05:26:52.756Z,111.47
2023-02-12T05:29:19.622Z,103.22
2023-02-12T05:31:46.171Z,95.47
2023-02-12T05:34:13.264Z,99.40
2023-02-12T05:36:39.808Z,103.10
2023-02-12T05:39:07.275Z,82.78
2023-02-12T05:41:35.518Z,86.20
2023-02-12T05:44:04.881Z,103.17
2023-02-12T05:46:31.362Z,105.23
2023-02-12T05:48:57.880Z,103.57
2023-02-12T05:51:25.843Z,112.55
2023-02-12T05:53:53.305Z,110.90
2023-02-12T05:56:21.371Z,115.97
2023-02-12T05:58:51.421Z,98.50
2023-02-12T06:01:19.277Z,105.35
2023-02-12T06:03:45.957Z,113.00
2023-02-12T06:06:12.743Z,95.32
2023-02-12T06:08:39.268Z,97.47
2023-02-12T06:11:08.287Z,109.70
2023-02-12T06:13:34.865Z,108.20
2023-02-12T06:16:01.619Z,119.57
2023-02-12T06:18:28.248Z,94.77
2023-02-12T06:20:54.966Z,106.17
2023-02-12T06:23:21.824Z,101.67
2023-02-12T06:25:49.841Z,89.07
2023-02-12T06:28:16.839Z,108.30
2023-02-12T06:30:43.494Z,115.17
2023-02-12T06:33:09.948Z,111.47
2023-02-12T06:35:36.597Z,113.07
2023-02-12T06:38:03.326Z,119.18
2023-02-12T06:40:29.829Z,108.27
2023-02-12T06:42:56.499Z,114.67
2023-02-12T06:45:22.954Z,87.45
2023-02-12T06:47:49.371Z,113.75
2023-02-12T06:50:16.007Z,119.70
2023-02-12T06:52:42.445Z,115.00
2023-02-12T06:55:08.955Z,126.15
2023-02-12T06:57:35.450Z,120.60
2023-02-12T07:00:02.085Z,126.03
2023-02-12T07:02:28.582Z,122.63
2023-02-12T07:04:55.001Z,91.70
2023-02-12T07:07:21.463Z,105.32
2023-02-12T07:09:47.888Z,102.75
2023-02-12T07:12:14.375Z,105.07
2023-02-12T07:14:40.820Z,89.80
2023-02-12T07:17:08.683Z,119.83
2023-02-12T07:19:35.219Z,112.68
2023-02-12T07:22:01.898Z,116.00
2023-02-12T07:24:28.405Z,115.72
2023-02-12T07:26:54.839Z,116.03
2023-02-12T07:29:21.263Z,125.00
2023-02-12T07:31:47.840Z,89.57
2023-02-12T07:34:14.338Z,96.80
2023-02-12T07:36:40.975Z,103.97
2023-02-12T07:39:07.519Z,108.55
2023-02-12T07:41:35.401Z,115.53
2023-02-12T07:44:07.446Z,107.88
2023-02-12T07:46:35.557Z,105.83
2023-02-12T07:49:04.311Z,98.97
2023-02-12T07:51:32.667Z,104.50
2023-02-12T07:54:00.552Z,111.90
2023-02-12T07:56:32.495Z,110.35
2023-02-12T07:59:00.756Z,100.80
2023-02-12T08:01:29.250Z,109.95
2023-02-12T08:04:06.129Z,101.68
2023-02-12T08:06:33.914Z,101.33
2023-02-12T08:09:01.087Z,112.82
2023-02-12T08:11:28.632Z,95.75
2023-02-12T08:13:55.594Z,99.70
2023-02-12T08:16:23.578Z,100.13
2023-02-12T08:18:50.109Z,91.32
2023-02-12T08:21:20.700Z,96.78
2023-02-12T08:23:50.607Z,90.63
2023-02-12T08:26:18.597Z,82.28
2023-02-12T08:28:47.357Z,82.80
2023-02-12T08:31:15.176Z,87.18
2023-02-12T08:33:41.712Z,92.40
2023-02-12T08:36:09.901Z,87.47
2023-02-12T08:38:36.380Z,89.13
2023-02-12T08:41:07.374Z,91.65
2023-02-12T08:43:34.068Z,84.95
2023-02-12T08:46:11.572Z,95.82
2023-02-12T08:48:38.424Z,88.57
2023-02-12T08:51:05.906Z,82.22
2023-02-12T08:53:32.369Z,81.05
2023-02-12T08:55:58.879Z,90.07
2023-02-12T08:58:25.341Z,83.47
2023-02-12T09:00:53.414Z,85.00
2023-02-12T09:03:19.998Z,72.95
2023-02-12T09:05:46.488Z,74.60
2023-02-12T09:08:13.054Z,77.05
2023-02-12T09:10:43.115Z,83.32
2023-02-12T09:13:10.434Z,76.25
2023-02-12T09:15:45.000Z,77.88
2023-02-12T09:18:12.501Z,75.13
2023-02-12T09:20:40.100Z,78.53
2023-02-12T09:23:07.036Z,75.63
2023-02-12T09:25:34.435Z,76.60
2023-02-12T09:28:01.681Z,71.53
2023-02-12T09:30:28.173Z,71.85
2023-02-12T09:32:55.129Z,74.95
2023-02-12T09:35:21.794Z,70.60
2023-02-12T09:37:48.229Z,71.40
2023-02-12T09:40:23.127Z,67.97
2023-02-12T09:42:59.191Z,73.28
2023-02-12T09:45:32.968Z,69.43
2023-02-12T09:48:22.764Z,69.18
2023-02-12T09:50:49.254Z,74.80
2023-02-12T09:53:17.576Z,71.90
2023-02-12T09:55:44.076Z,73.43
2023-02-12T09:58:31.001Z,66.93
2023-02-12T10:00:57.602Z,70.97
2023-02-12T10:03:31.496Z,66.03
2023-02-12T10:06:00.338Z,65.85
2023-02-12T10:08:59.189Z,67.00
2023-02-12T10:11:28.452Z,61.67
2023-02-12T10:14:03.186Z,69.03
2023-02-12T10:16:58.957Z,67.03
2023-02-12T10:19:46.425Z,69.80
2023-02-12T10:22:18.742Z,64.57
2023-02-12T10:24:50.958Z,61.78
2023-02-12T10:27:20.436Z,60.92
2023-02-12T10:29:48.433Z,55.88
2023-02-12T10:32:35.694Z,47.60
2023-02-12T10:35:12.896Z,63.45
2023-02-12T10:37:39.470Z,60.40
2023-02-12T10:40:18.252Z,63.10
2023-02-12T10:42:46.307Z,61.30
2023-02-12T10:45:14.316Z,58.85
2023-02-12T10:47:40.906Z,56.42
2023-02-12T10:50:25.768Z,56.75
2023-02-12T10:52:55.340Z,52.95
2023-02-12T10:55:25.901Z,55.92
2023-02-12T10:57:52.682Z,50.22
2023-02-12T11:00:26.736Z,51.33
2023-02-12T11:03:20.262Z,53.80
2023-02-12T11:05:47.401Z,42.95
2023-02-12T11:08:29.561Z,37.78
2023-02-12T11:11:02.563Z,35.72
2023-02-12T11:13:29.074Z,39.75
2023-02-12T11:15:55.871Z,36.05
2023-02-12T11:18:28.756Z,38.10
2023-02-12T11:20:57.279Z,38.45
2023-02-12T11:23:42.391Z,43.30
2023-02-12T11:26:18.237Z,36.95
2023-02-12T11:29:01.083Z,42.50
2023-02-12T11:31:32.718Z,39.92
2023-02-12T11:34:08.589Z,44.05
2023-02-12T11:36:38.453Z,42.60
2023-02-12T11:39:07.715Z,38.95
2023-02-12T11:41:39.660Z,41.60
2023-02-12T11:44:18.903Z,39.90
2023-02-12T11:46:50.475Z,35.75
2023-02-12T11:49:21.626Z,38.75
2023-02-12T11:51:48.850Z,38.40
2023-02-12T11:54:20.614Z,39.28
2023-02-12T11:56:47.892Z,40.13
2023-02-12T11:59:27.433Z,35.80
2023-02-12T12:01:55.629Z,35.45
2023-02-12T12:04:23.149Z,35.97
2023-02-12T12:06:53.353Z,36.90
2023-02-12T12:09:29.861Z,38.47
2023-02-12T12:12:13.788Z,41.03
2023-02-12T12:15:02.469Z,37.67
2023-02-12T12:17:57.216Z,36.40
2023-02-12T12:20:25.223Z,35.90
2023-02-12T12:23:00.865Z,36.72
2023-02-12T12:25:37.483Z,36.72
2023-02-12T12:28:10.727Z,32.42
2023-02-12T12:30:37.268Z,33.15
2023-02-12T12:33:06.686Z,31.17
2023-02-12T12:35:44.208Z,35.08
2023-02-12T12:38:39.871Z,37.38
2023-02-12T12:41:21.328Z,32.20
2023-02-12T12:43:54.010Z,33.63
2023-02-12T12:46:50.080Z,32.58
2023-02-12T12:49:25.484Z,34.22
2023-02-12T12:52:10.827Z,33.03
2023-02-12T12:54:37.565Z,32.42
2023-02-12T12:57:16.905Z,31.50
2023-02-12T12:59:43.382Z,31.70
2023-02-12T13:02:28.893Z,32.15
2023-02-12T13:05:01.578Z,33.38
2023-02-12T13:07:45.164Z,30.20
2023-02-12T13:10:20.806Z,31.00
2023-02-12T13:12:50.300Z,29.98
2023-02-12T13:15:29.120Z,30.20
2023-02-12T13:18:14.739Z,34.20
2023-02-12T13:20:42.010Z,31.00
2023-02-12T13:23:15.842Z,32.47
2023-02-12T13:25:48.978Z,31.23
2023-02-12T13:28:24.575Z,30.08
2023-02-12T13:30:52.472Z,29.38
2023-02-12T13:33:27.610Z,29.30
2023-02-12T13:35:59.368Z,30.95
2023-02-12T13:38:27.955Z,33.78
2023-02-12T13:40:56.647Z,29.55
2023-02-12T13:43:32.462Z,30.08
2023-02-12T13:46:04.715Z,31.52
2023-02-12T13:48:50.033Z,29.00
2023-02-12T13:51:22.729Z,32.78
2023-02-12T13:53:56.788Z,31.35
2023-02-12T13:56:23.247Z,29.00
2023-02-12T13:58:51.634Z,28.13
2023-02-12T14:01:36.882Z,28.60
2023-02-12T14:04:22.179Z,27.30
2023-02-12T14:06:58.690Z,30.73
2023-02-12T14:09:35.209Z,27.85
2023-02-12T14:12:02.274Z,28.55
2023-02-12T14:14:58.284Z,29.23
2023-02-12T14:17:30.897Z,30.42
2023-02-12T14:20:16.147Z,31.55
2023-02-12T14:22:42.574Z,29.55
2023-02-12T14:25:15.158Z,27.25
2023-02-12T14:27:43.993Z,31.45
2023-02-12T14:30:10.434Z,30.40
2023-02-12T14:32:46.231Z,25.75
2023-02-12T14:35:31.156Z,28.75
2023-02-12T14:37:58.620Z,29.27
2023-02-12T14:40:34.452Z,27.55
2023-02-12T14:43:02.335Z,29.40
2023-02-12T14:45:35.623Z,30.75
2023-02-12T14:48:03.055Z,33.45
2023-02-12T14:50:31.897Z,31.55
2023-02-12T14:53:12.845Z,27.73
2023-02-12T14:55:43.527Z,32.42
2023-02-12T14:58:17.232Z,28.63
2023-02-12T15:00:45.691Z,30.48
2023-02-12T15:03:22.477Z,30.17
2023-02-12T15:06:01.053Z,31.80
2023-02-12T15:08:51.174Z,31.63
2023-02-12T15:11:28.092Z,31.67
2023-02-12T15:13:57.567Z,30.38
2023-02-12T15:16:31.344Z,32.38
2023-02-12T15:19:10.198Z,32.63
2023-02-12T15:21:37.428Z,29.40
2023-02-12T15:24:06.754Z,30.67
2023-02-12T15:26:34.858Z,36.80
2023-02-12T15:29:02.952Z,34.65
2023-02-12T15:31:30.636Z,35.65
2023-02-12T15:33:58.631Z,39.90
2023-02-12T15:36:26.008Z,42.80
2023-02-12T15:38:57.096Z,49.03
2023-02-12T15:41:28.637Z,33.75
2023-02-12T15:43:55.415Z,39.67
2023-02-12T15:46:21.989Z,31.17
2023-02-12T15:48:49.356Z,32.00
2023-02-12T15:51:19.033Z,31.60
2023-02-12T15:53:45.774Z,30.35
2023-02-12T15:56:13.432Z,31.48
2023-02-12T15:58:39.832Z,33.08
2023-02-12T16:01:06.668Z,36.33
2023-02-12T16:03:34.601Z,29.17
2023-02-12T16:06:06.138Z,29.88
2023-02-12T16:08:33.969Z,31.73
2023-02-12T16:11:13.616Z,32.45
2023-02-12T16:14:00.421Z,31.63
2023-02-12T16:16:31.527Z,33.83
2023-02-12T16:19:04.104Z,32.63
2023-02-12T16:21:30.930Z,31.38
2023-02-12T16:24:02.890Z,31.50
2023-02-12T16:26:30.342Z,33.03
2023-02-12T16:28:57.395Z,30.30
2023-02-12T16:31:27.094Z,35.95
2023-02-12T16:33:56.109Z,33.75
2023-02-12T16:36:22.755Z,33.15
2023-02-12T16:38:51.851Z,33.03
2023-02-12T16:41:25.819Z,29.52
2023-02-12T16:44:12.510Z,34.15
2023-02-12T16:46:46.748Z,32.20
2023-02-12T16:49:17.850Z,37.33
2023-02-12T16:51:44.884Z,37.38
2023-02-12T16:54:28.737Z,32.92
2023-02-12T16:56:55.317Z,31.90
2023-02-12T16:59:21.814Z,32.22
2023-02-12T17:02:01.523Z,32.80
2023-02-12T17:04:28.356Z,32.83
2023-02-12T17:06:54.770Z,36.47
2023-02-12T17:09:21.305Z,34.08
2023-02-12T17:11:47.916Z,35.58
2023-02-12T17:14:15.815Z,34.10
2023-02-12T17:16:42.579Z,32.85
2023-02-12T17:19:09.097Z,36.38
2023-02-12T17:21:38.740Z,36.72
2023-02-12T17:24:16.663Z,36.55
2023-02-12T17:26:43.502Z,34.88
2023-02-12T17:29:09.994Z,37.20
2023-02-12T17:31:37.626Z,37.35
2023-02-12T17:34:04.735Z,36.78
2023-02-12T17:36:31.212Z,33.95
2023-02-12T17:38:57.670Z,34.25
2023-02-12T17:41:24.518Z,34.72
2023-02-12T17:43:51.039Z,35.92
2023-02-12T17:46:21.746Z,35.85
2023-02-12T17:48:48.336Z,34.90
2023-02-12T17:51:15.162Z,38.20
2023-02-12T17:53:41.671Z,33.75
2023-02-12T17:56:15.498Z,34.58
2023-02-12T17:58:42.569Z,34.67
2023-02-12T18:01:10.724Z,32.17
2023-02-12T18:03:37.846Z,33.40
2023-02-12T18:06:04.786Z,35.10
2023-02-12T18:08:31.349Z,34.63
2023-02-12T18:10:58.458Z,32.65
2023-02-12T18:13:25.118Z,35.38
2023-02-12T18:15:51.619Z,32.88
2023-02-12T18:18:18.185Z,36.85
2023-02-12T18:20:44.611Z,45.80
2023-02-12T18:23:11.238Z,38.00
2023-02-12T18:25:41.656Z,39.88
2023-02-12T18:28:08.230Z,41.00
2023-02-12T18:30:36.583Z,40.65
2023-02-12T18:33:03.102Z,39.03
2023-02-12T18:35:29.571Z,38.90
2023-02-12T18:37:56.008Z,35.88
2023-02-12T18:40:22.497Z,37.05
2023-02-12T18:42:49.105Z,35.27
2023-02-12T18:45:15.602Z,31.52
2023-02-12T18:47:42.137Z,32.58
2023-02-12T18:50:08.809Z,29.88
2023-02-12T18:52:36.291Z,30.15
2023-02-12T18:55:02.973Z,31.98
2023-02-12T18:57:31.071Z,28.52
2023-02-12T18:59:57.542Z,27.92
2023-02-12T19:02:24.143Z,28.58
2023-02-12T19:04:50.707Z,28.55
2023-02-12T19:07:17.147Z,27.08
2023-02-12T19:09:43.749Z,30.15
2023-02-12T19:12:10.766Z,23.50
2023-02-12T19:14:37.224Z,24.63
2023-02-12T19:17:03.654Z,25.85
2023-02-12T19:19:30.102Z,26.30
2023-02-12T19:21:56.550Z,22.90
2023-02-12T19:24:23.069Z,24.30
2023-02-12T19:26:51.027Z,24.50
2023-02-12T19:29:18.219Z,18.33
2023-02-12T19:31:45.548Z,19.30
2023-02-12T19:34:17.843Z,15.18
2023-02-12T19:36:44.634Z,18.00
2023-02-12T19:39:13.752Z,20.75
2023-02-12T19:41:43.158Z,14.52
2023-02-12T19:44:10.933Z,13.48
2023-02-12T19:46:39.206Z,14.05
2023-02-12T19:49:06.742Z,11.27
2023-02-12T19:51:33.273Z,13.55
2023-02-12T19:54:01.020Z,12.35
2023-02-12T19:56:27.881Z,13.82
2023-02-12T19:58:55.663Z,11.52
2023-02-12T20:01:22.367Z,12.23
2023-02-12T20:03:49.327Z,11.95
2023-02-12T20:06:20.708Z,11.73
2023-02-12T20:08:47.212Z,12.38
2023-02-12T20:11:15.686Z,10.82
2023-02-12T20:13:42.186Z,12.15
2023-02-12T20:16:10.845Z,9.37
2023-02-12T20:18:37.659Z,10.38
2023-02-12T20:21:20.739Z,12.02
2023-02-12T20:23:47.298Z,11.10
2023-02-12T20:26:14.795Z,10.00
2023-02-12T20:28:44.482Z,9.32
2023-02-12T20:31:15.416Z,10.50
2023-02-12T20:33:42.216Z,11.15
2023-02-12T20:36:10.122Z,10.25
2023-02-12T20:38:38.260Z,10.80
2023-02-12T20:41:05.608Z,10.75
2023-02-12T20:43:33.183Z,10.70
2023-02-12T20:46:07.036Z,10.13
2023-02-12T20:48:33.886Z,11.32
2023-02-12T20:51:06.618Z,10.50
2023-02-12T20:53:33.406Z,11.32
2023-02-12T20:56:07.401Z,10.25
2023-02-12T20:58:33.845Z,12.90
2023-02-12T21:01:10.421Z,11.20
2023-02-12T21:03:37.112Z,11.85
2023-02-12T21:06:03.732Z,13.82
2023-02-12T21:08:30.217Z,11.98
2023-02-12T21:11:00.818Z,11.38
2023-02-12T21:13:27.752Z,12.00
2023-02-12T21:16:04.565Z,12.95
2023-02-12T21:18:31.124Z,10.43
2023-02-12T21:21:01.608Z,11.98
2023-02-12T21:23:28.041Z,11.10
2023-02-12T21:26:01.773Z,11.45
2023-02-12T21:28:28.561Z,13.45
2023-02-12T21:30:55.089Z,12.25
2023-02-12T21:33:21.505Z,18.23
2023-02-12T21:35:48.004Z,16.08
2023-02-12T21:38:14.502Z,10.45
2023-02-12T21:40:41.091Z,11.82
2023-02-12T21:43:07.498Z,11.27
2023-02-12T21:45:34.016Z,11.07
2023-02-12T21:48:00.491Z,12.20
2023-02-12T21:50:26.937Z,10.88
2023-02-12T21:52:53.470Z,10.38
2023-02-12T21:55:19.900Z,11.48
2023-02-12T21:57:47.276Z,10.38
2023-02-12T22:00:14.196Z,11.25
2023-02-12T22:02:41.619Z,9.20
2023-02-12T22:05:08.173Z,11.15
2023-02-12T22:07:34.747Z,11.27
2023-02-12T22:10:01.437Z,10.63
2023-02-12T22:12:32.192Z,10.48
2023-02-12T22:14:58.655Z,10.43
2023-02-12T22:17:25.147Z,10.82
2023-02-12T22:19:51.632Z,10.38
2023-02-12T22:22:18.078Z,12.15
2023-02-12T22:24:44.523Z,10.48
2023-02-12T22:27:10.952Z,10.32
2023-02-12T22:29:37.380Z,10.38
2023-02-12T22:32:04.049Z,9.95
2023-02-12T22:34:30.595Z,9.52
2023-02-12T22:36:57.069Z,9.75
2023-02-12T22:39:23.475Z,11.85
2023-02-12T22:41:50.129Z,11.80
2023-02-12T22:44:18.351Z,9.63
2023-02-12T22:46:45.934Z,11.18
2023-02-12T22:49:12.462Z,11.50
2023-02-12T22:51:39.644Z,10.77
2023-02-12T22:54:06.855Z,13.63
2023-02-12T22:56:33.475Z,11.43
2023-02-12T22:59:01.319Z,11.35
2023-02-12T23:01:28.877Z,11.13
2023-02-12T23:03:55.653Z,11.82
2023-02-12T23:06:23.440Z,9.00
2023-02-12T23:08:50.883Z,11.70
2023-02-12T23:11:18.100Z,11.32
2023-02-12T23:13:44.932Z,12.73
2023-02-12T23:16:11.490Z,9.75
2023-02-12T23:18:38.226Z,13.23
2023-02-12T23:21:04.925Z,11.63
2023-02-12T23:23:31.430Z,11.05
2023-02-12T23:25:57.924Z,11.73
2023-02-12T23:28:24.524Z,17.55
2023-02-12T23:30:51.490Z,16.65
2023-02-12T23:33:19.152Z,14.00
2023-02-12T23:35:46.068Z,14.10
2023-02-12T23:38:12.557Z,12.38
2023-02-12T23:40:38.998Z,12.80
2023-02-12T23:43:05.559Z,11.57
2023-02-12T23:45:32.373Z,11.27
2023-02-12T23:47:58.919Z,12.55
2023-02-12T23:50:25.496Z,13.55
2023-02-12T23:52:51.998Z,12.15
2023-02-12T23:55:20.164Z,12.43
2023-02-12T23:57:47.319Z,14.45
